createdAt,value
2022-10-01T00:00:27.874Z,0.00
2022-10-01T00:01:27.954Z,0.00
2022-10-01T00:02:28.009Z,0.00
2022-10-01T00:03:27.953Z,0.00
2022-10-01T00:04:27.982Z,0.00
2022-10-01T00:05:28.005Z,0.00
2022-10-01T00:06:28.031Z,0.00
2022-10-01T00:07:28.057Z,0.00
2022-10-01T00:08:28.083Z,0.00
2022-10-01T00:09:28.110Z,0.00
2022-10-01T00:10:28.142Z,0.00
2022-10-01T00:11:28.162Z,0.00
2022-10-01T00:12:28.187Z,0.00
2022-10-01T00:13:28.213Z,0.00
2022-10-01T00:14:28.239Z,0.00
2022-10-01T00:15:28.286Z,0.00
2022-10-01T00:16:28.393Z,0.00
2022-10-01T00:17:28.318Z,0.00
2022-10-01T00:18:28.342Z,0.00
2022-10-01T00:19:28.369Z,0.00
2022-10-01T00:20:28.395Z,0.00
2022-10-01T00:21:28.422Z,0.00
2022-10-01T00:22:28.446Z,0.00
2022-10-01T00:23:28.473Z,0.00
2022-10-01T00:24:28.500Z,0.00
2022-10-01T00:25:28.532Z,0.00
2022-10-01T00:26:28.554Z,0.00
2022-10-01T00:27:28.580Z,0.00
2022-10-01T00:28:28.691Z,0.00
2022-10-01T00:29:28.634Z,0.00
2022-10-01T00:30:28.657Z,0.00
2022-10-01T00:31:28.819Z,0.00
2022-10-01T00:32:28.708Z,0.00
2022-10-01T00:33:28.737Z,0.00
2022-10-01T00:34:28.763Z,0.00
2022-10-01T00:35:28.787Z,0.00
2022-10-01T00:36:28.815Z,0.00
2022-10-01T00:37:28.841Z,0.00
2022-10-01T00:38:28.866Z,0.00
2022-10-01T00:39:28.892Z,0.00
2022-10-01T00:40:28.917Z,0.00
2022-10-01T00:41:28.945Z,0.00
2022-10-01T00:42:28.973Z,0.00
2022-10-01T00:43:28.998Z,0.00
2022-10-01T00:44:29.021Z,0.00
2022-10-01T00:45:29.080Z,0.00
2022-10-01T00:46:29.109Z,0.00
2022-10-01T00:47:29.131Z,0.00
2022-10-01T00:48:29.139Z,0.00
2022-10-01T00:49:29.195Z,0.00
2022-10-01T00:50:29.183Z,0.00
2022-10-01T00:51:29.206Z,0.00
2022-10-01T00:52:29.230Z,0.00
2022-10-01T00:53:29.257Z,0.00
2022-10-01T00:54:29.282Z,0.00
2022-10-01T00:55:29.309Z,0.00
2022-10-01T00:56:29.335Z,0.00
2022-10-01T00:57:29.362Z,0.00
2022-10-01T00:58:29.386Z,0.00
2022-10-01T00:59:29.413Z,0.00
2022-10-01T01:00:29.440Z,0.00
2022-10-01T01:01:29.486Z,0.00
2022-10-01T01:02:29.554Z,0.00
2022-10-01T01:03:29.534Z,0.00
2022-10-01T01:04:29.541Z,0.00
2022-10-01T01:05:29.569Z,0.00
2022-10-01T01:06:29.593Z,0.00
2022-10-01T01:07:29.621Z,0.00
2022-10-01T01:08:29.644Z,0.00
2022-10-01T01:09:29.672Z,0.00
2022-10-01T01:10:29.696Z,0.00
2022-10-01T01:11:29.723Z,0.00
2022-10-01T01:12:29.748Z,0.00
2022-10-01T01:13:29.774Z,0.00
2022-10-01T01:14:29.799Z,0.00
2022-10-01T01:15:29.887Z,0.00
2022-10-01T01:16:29.851Z,0.00
2022-10-01T01:17:29.875Z,0.00
2022-10-01T01:18:29.901Z,0.00
2022-10-01T01:19:29.945Z,0.00
2022-10-01T01:20:29.951Z,0.00
2022-10-01T01:21:29.979Z,0.00
2022-10-01T01:22:30.002Z,0.00
2022-10-01T01:23:30.028Z,0.00
2022-10-01T01:24:30.052Z,0.00
2022-10-01T01:25:30.080Z,0.00
2022-10-01T01:26:30.104Z,0.00
2022-10-01T01:27:30.130Z,0.00
2022-10-01T01:28:30.244Z,0.00
2022-10-01T01:29:30.182Z,0.00
2022-10-01T01:30:30.205Z,0.00
2022-10-01T01:31:30.265Z,0.00
2022-10-01T01:32:30.255Z,0.00
2022-10-01T01:33:30.282Z,0.00
2022-10-01T01:34:30.308Z,0.00
2022-10-01T01:35:30.349Z,0.00
2022-10-01T01:36:30.356Z,0.00
2022-10-01T01:37:30.384Z,0.00
2022-10-01T01:38:30.407Z,0.00
2022-10-01T01:39:30.435Z,0.00
2022-10-01T01:40:30.458Z,0.00
2022-10-01T01:41:30.582Z,0.00
2022-10-01T01:42:30.508Z,0.00
2022-10-01T01:43:30.535Z,0.00
2022-10-01T01:44:30.560Z,0.00
2022-10-01T01:45:30.795Z,0.00
2022-10-01T01:46:30.609Z,0.00
2022-10-01T01:47:30.636Z,0.00
2022-10-01T01:48:30.659Z,0.00
2022-10-01T01:49:30.686Z,0.00
2022-10-01T01:50:30.712Z,0.00
2022-10-01T01:51:31.089Z,0.00
2022-10-01T01:52:30.761Z,0.00
2022-10-01T01:53:30.787Z,0.00
2022-10-01T01:54:30.811Z,0.00
2022-10-01T01:55:30.837Z,0.00
2022-10-01T01:56:30.862Z,0.00
2022-10-01T01:57:30.890Z,0.00
2022-10-01T01:58:30.913Z,0.00
2022-10-01T01:59:30.938Z,0.00
2022-10-01T02:00:30.962Z,0.00
2022-10-01T02:01:31.314Z,0.00
2022-10-01T02:02:31.028Z,0.00
2022-10-01T02:03:31.039Z,0.00
2022-10-01T02:04:31.063Z,0.00
2022-10-01T02:05:31.089Z,0.00
2022-10-01T02:06:31.117Z,0.00
2022-10-01T02:07:31.162Z,0.00
2022-10-01T02:08:31.163Z,0.00
2022-10-01T02:09:31.193Z,0.00
2022-10-01T02:10:31.216Z,0.00
2022-10-01T02:11:31.603Z,0.00
2022-10-01T02:12:31.264Z,0.00
2022-10-01T02:13:31.290Z,0.00
2022-10-01T02:14:31.315Z,0.00
2022-10-01T02:15:31.340Z,0.00
2022-10-01T02:16:31.367Z,0.00
2022-10-01T02:17:31.392Z,0.00
2022-10-01T02:18:31.416Z,0.00
2022-10-01T02:19:31.444Z,0.00
2022-10-01T02:20:31.465Z,0.00
2022-10-01T02:21:31.882Z,0.00
2022-10-01T02:22:31.514Z,0.00
2022-10-01T02:23:31.560Z,0.00
2022-10-01T02:24:31.565Z,0.00
2022-10-01T02:25:31.592Z,0.00
2022-10-01T02:26:31.615Z,0.00
2022-10-01T02:27:31.641Z,0.00
2022-10-01T02:28:31.785Z,0.00
2022-10-01T02:29:31.692Z,0.00
2022-10-01T02:30:31.715Z,0.00
2022-10-01T02:31:32.127Z,0.00
2022-10-01T02:32:31.765Z,0.00
2022-10-01T02:33:31.793Z,0.00
2022-10-01T02:34:31.816Z,0.00
2022-10-01T02:35:31.841Z,0.00
2022-10-01T02:36:31.865Z,0.00
2022-10-01T02:37:31.893Z,0.00
2022-10-01T02:38:31.921Z,0.00
2022-10-01T02:39:31.961Z,0.00
2022-10-01T02:40:31.967Z,0.00
2022-10-01T02:41:32.312Z,0.00
2022-10-01T02:42:32.019Z,0.00
2022-10-01T02:43:32.044Z,0.00
2022-10-01T02:44:32.066Z,0.00
2022-10-01T02:45:32.195Z,0.00
2022-10-01T02:46:32.118Z,0.00
2022-10-01T02:47:32.144Z,0.00
2022-10-01T02:48:32.167Z,0.00
2022-10-01T02:49:32.195Z,0.00
2022-10-01T02:50:32.218Z,0.00
2022-10-01T02:51:32.562Z,0.00
2022-10-01T02:52:32.268Z,0.00
2022-10-01T02:53:32.299Z,0.00
2022-10-01T02:54:32.319Z,0.00
2022-10-01T02:55:32.365Z,0.00
2022-10-01T02:56:32.369Z,0.00
2022-10-01T02:57:32.397Z,0.00
2022-10-01T02:58:32.420Z,0.00
2022-10-01T02:59:32.444Z,0.00
2022-10-01T03:00:32.471Z,0.00
2022-10-01T03:01:32.892Z,0.00
2022-10-01T03:02:32.598Z,0.00
2022-10-01T03:03:32.544Z,0.00
2022-10-01T03:04:32.571Z,0.00
2022-10-01T03:05:32.596Z,0.00
2022-10-01T03:06:32.620Z,0.00
2022-10-01T03:07:32.646Z,0.00
2022-10-01T03:08:32.671Z,0.00
2022-10-01T03:09:32.696Z,0.00
2022-10-01T03:10:32.720Z,0.00
2022-10-01T03:11:33.087Z,0.00
2022-10-01T03:12:32.770Z,0.00
2022-10-01T03:13:32.799Z,0.00
2022-10-01T03:14:32.824Z,0.00
2022-10-01T03:15:32.847Z,0.00
2022-10-01T03:16:32.872Z,0.00
2022-10-01T03:17:32.899Z,0.00
2022-10-01T03:18:32.923Z,0.00
2022-10-01T03:19:32.950Z,0.00
2022-10-01T03:20:32.974Z,0.00
2022-10-01T03:21:33.357Z,0.00
2022-10-01T03:22:33.023Z,0.00
2022-10-01T03:23:33.101Z,0.00
2022-10-01T03:24:33.082Z,0.00
2022-10-01T03:25:33.102Z,0.00
2022-10-01T03:26:33.126Z,0.00
2022-10-01T03:27:33.168Z,0.00
2022-10-01T03:28:33.174Z,0.00
2022-10-01T03:29:33.203Z,0.00
2022-10-01T03:30:33.225Z,0.00
2022-10-01T03:31:33.694Z,0.00
2022-10-01T03:32:33.276Z,0.00
2022-10-01T03:33:33.300Z,0.00
2022-10-01T03:34:33.326Z,0.00
2022-10-01T03:35:33.351Z,0.00
2022-10-01T03:36:33.374Z,0.00
2022-10-01T03:37:33.404Z,0.00
2022-10-01T03:38:33.427Z,0.00
2022-10-01T03:39:33.454Z,0.00
2022-10-01T03:40:33.475Z,0.00
2022-10-01T03:41:33.846Z,0.00
2022-10-01T03:42:33.527Z,0.00
2022-10-01T03:43:33.571Z,0.00
2022-10-01T03:44:33.577Z,0.00
2022-10-01T03:45:33.674Z,0.00
2022-10-01T03:46:33.628Z,0.00
2022-10-01T03:47:33.654Z,0.00
2022-10-01T03:48:33.678Z,0.00
2022-10-01T03:49:33.704Z,0.00
2022-10-01T03:50:33.728Z,0.00
2022-10-01T03:51:34.116Z,0.00
2022-10-01T03:52:33.786Z,0.00
2022-10-01T03:53:33.804Z,0.00
2022-10-01T03:54:33.835Z,0.00
2022-10-01T03:55:33.855Z,0.00
2022-10-01T03:56:33.883Z,0.00
2022-10-01T03:57:33.904Z,0.00
2022-10-01T03:58:33.931Z,0.00
2022-10-01T03:59:33.975Z,0.00
2022-10-01T04:00:33.984Z,0.00
2022-10-01T04:01:34.368Z,0.00
2022-10-01T04:02:34.136Z,0.00
2022-10-01T04:03:34.056Z,0.00
2022-10-01T04:04:34.082Z,0.00
2022-10-01T04:05:34.106Z,0.00
2022-10-01T04:06:34.138Z,0.00
2022-10-01T04:07:34.160Z,0.00
2022-10-01T04:08:34.194Z,0.00
2022-10-01T04:09:34.210Z,0.00
2022-10-01T04:10:34.235Z,0.00
2022-10-01T04:11:34.629Z,0.00
2022-10-01T04:12:34.284Z,0.00
2022-10-01T04:13:34.310Z,0.00
2022-10-01T04:14:34.339Z,0.00
2022-10-01T04:15:34.376Z,0.00
2022-10-01T04:16:34.404Z,0.00
2022-10-01T04:17:34.409Z,0.00
2022-10-01T04:18:34.436Z,0.00
2022-10-01T04:19:34.457Z,0.00
2022-10-01T04:20:34.486Z,0.00
2022-10-01T04:21:34.846Z,0.00
2022-10-01T04:22:34.542Z,0.00
2022-10-01T04:23:34.561Z,0.00
2022-10-01T04:24:34.586Z,0.00
2022-10-01T04:25:34.612Z,0.00
2022-10-01T04:26:34.639Z,0.00
2022-10-01T04:27:34.659Z,0.00
2022-10-01T04:28:34.687Z,0.00
2022-10-01T04:29:39.362Z,0.00
2022-10-01T04:30:34.737Z,0.00
2022-10-01T04:31:35.567Z,0.00
2022-10-01T04:32:34.788Z,0.00
2022-10-01T04:33:34.812Z,0.00
2022-10-01T04:34:34.840Z,0.00
2022-10-01T04:35:34.862Z,0.00
2022-10-01T04:36:34.890Z,0.00
2022-10-01T04:37:34.913Z,0.00
2022-10-01T04:38:34.941Z,0.00
2022-10-01T04:39:34.962Z,0.00
2022-10-01T04:40:34.990Z,0.00
2022-10-01T04:41:35.276Z,0.00
2022-10-01T04:42:35.040Z,0.00
2022-10-01T04:43:35.066Z,0.00
2022-10-01T04:44:35.091Z,0.00
2022-10-01T04:45:35.116Z,0.00
2022-10-01T04:46:35.210Z,0.00
2022-10-01T04:47:37.558Z,0.00
2022-10-01T04:48:35.193Z,0.00
2022-10-01T04:49:35.222Z,0.00
2022-10-01T04:50:35.241Z,0.00
2022-10-01T04:51:35.645Z,0.00
2022-10-01T04:52:35.293Z,0.00
2022-10-01T04:53:35.320Z,0.00
2022-10-01T04:54:35.351Z,0.00
2022-10-01T04:55:35.366Z,0.00
2022-10-01T04:56:35.398Z,0.00
2022-10-01T04:57:35.417Z,0.00
2022-10-01T04:58:35.444Z,0.00
2022-10-01T04:59:35.468Z,0.00
2022-10-01T05:00:35.564Z,0.00
2022-10-01T05:01:36.022Z,0.00
2022-10-01T05:02:35.605Z,0.00
2022-10-01T05:03:35.626Z,0.00
2022-10-01T05:04:35.595Z,0.00
2022-10-01T05:05:35.621Z,0.00
2022-10-01T05:06:35.654Z,0.00
2022-10-01T05:07:35.674Z,0.00
2022-10-01T05:08:35.697Z,0.00
2022-10-01T05:09:35.724Z,0.00
2022-10-01T05:10:35.749Z,0.00
2022-10-01T05:11:36.244Z,0.00
2022-10-01T05:12:35.800Z,0.00
2022-10-01T05:13:35.824Z,4.00
2022-10-01T05:14:35.853Z,4.00
2022-10-01T05:15:35.874Z,0.00
2022-10-01T05:16:35.966Z,4.00
2022-10-01T05:17:35.929Z,4.00
2022-10-01T05:18:35.953Z,4.00
2022-10-01T05:19:35.996Z,4.00
2022-10-01T05:20:36.005Z,4.00
2022-10-01T05:21:36.419Z,8.00
2022-10-01T05:22:36.055Z,4.00
2022-10-01T05:23:36.081Z,8.00
2022-10-01T05:24:36.107Z,8.00
2022-10-01T05:25:36.131Z,8.00
2022-10-01T05:26:36.158Z,12.00
2022-10-01T05:27:36.183Z,8.00
2022-10-01T05:28:36.295Z,12.00
2022-10-01T05:29:36.235Z,12.00
2022-10-01T05:30:36.262Z,12.00
2022-10-01T05:31:36.772Z,12.00
2022-10-01T05:32:36.313Z,16.00
2022-10-01T05:33:36.338Z,16.00
2022-10-01T05:34:36.364Z,20.00
2022-10-01T05:35:36.415Z,16.00
2022-10-01T05:36:36.415Z,20.00
2022-10-01T05:37:36.441Z,20.00
2022-10-01T05:38:36.467Z,24.00
2022-10-01T05:39:36.492Z,28.00
2022-10-01T05:40:36.519Z,36.00
2022-10-01T05:41:36.876Z,40.00
2022-10-01T05:42:36.571Z,48.00
2022-10-01T05:43:36.594Z,52.00
2022-10-01T05:44:36.622Z,56.00
2022-10-01T05:45:36.710Z,52.00
2022-10-01T05:46:36.674Z,56.00
2022-10-01T05:47:36.698Z,56.00
2022-10-01T05:48:36.811Z,56.00
2022-10-01T05:49:36.751Z,60.00
2022-10-01T05:50:36.777Z,60.00
2022-10-01T05:51:37.199Z,64.00
2022-10-01T05:52:36.829Z,68.00
2022-10-01T05:53:36.853Z,64.00
2022-10-01T05:54:36.881Z,64.00
2022-10-01T05:55:36.907Z,64.00
2022-10-01T05:56:36.932Z,68.00
2022-10-01T05:57:36.962Z,68.00
2022-10-01T05:58:36.986Z,68.00
2022-10-01T05:59:37.008Z,72.00
2022-10-01T06:00:37.036Z,76.00
2022-10-01T06:01:37.384Z,84.00
2022-10-01T06:02:37.180Z,92.00
2022-10-01T06:03:37.111Z,96.00
2022-10-01T06:04:40.995Z,96.00
2022-10-01T06:05:37.164Z,92.00
2022-10-01T06:06:37.191Z,100.00
2022-10-01T06:07:37.233Z,112.00
2022-10-01T06:08:37.241Z,132.00
2022-10-01T06:09:37.266Z,132.00
2022-10-01T06:10:37.294Z,144.00
2022-10-01T06:11:37.521Z,156.00
2022-10-01T06:12:37.347Z,188.00
2022-10-01T06:13:37.381Z,216.00
2022-10-01T06:14:37.399Z,236.00
2022-10-01T06:15:37.432Z,260.00
2022-10-01T06:16:37.528Z,252.00
2022-10-01T06:17:37.473Z,252.00
2022-10-01T06:18:37.503Z,276.00
2022-10-01T06:19:37.524Z,260.00
2022-10-01T06:20:37.555Z,260.00
2022-10-01T06:21:37.881Z,252.00
2022-10-01T06:22:37.606Z,252.00
2022-10-01T06:23:37.650Z,268.00
2022-10-01T06:24:37.657Z,284.00
2022-10-01T06:25:37.682Z,300.00
2022-10-01T06:26:37.709Z,360.00
2022-10-01T06:27:37.733Z,392.00
2022-10-01T06:28:37.763Z,388.00
2022-10-01T06:29:37.784Z,372.00
2022-10-01T06:30:37.813Z,388.00
2022-10-01T06:31:38.412Z,444.00
2022-10-01T06:32:37.866Z,492.00
2022-10-01T06:33:37.891Z,516.00
2022-10-01T06:34:37.915Z,508.00
2022-10-01T06:35:37.940Z,476.00
2022-10-01T06:36:37.968Z,424.00
2022-10-01T06:37:37.993Z,456.00
2022-10-01T06:38:38.024Z,460.00
2022-10-01T06:39:38.069Z,452.00
2022-10-01T06:40:38.073Z,492.00
2022-10-01T06:41:38.099Z,480.00
2022-10-01T06:42:38.125Z,480.00
2022-10-01T06:43:38.149Z,552.00
2022-10-01T06:44:38.183Z,516.00
2022-10-01T06:45:38.282Z,512.00
2022-10-01T06:46:38.232Z,484.00
2022-10-01T06:47:38.253Z,468.00
2022-10-01T06:48:38.281Z,464.00
2022-10-01T06:49:38.306Z,464.00
2022-10-01T06:50:38.334Z,512.00
2022-10-01T06:51:38.358Z,576.00
2022-10-01T06:52:38.389Z,652.00
2022-10-01T06:53:38.419Z,600.00
2022-10-01T06:54:38.437Z,576.00
2022-10-01T06:55:38.484Z,620.00
2022-10-01T06:56:38.491Z,612.00
2022-10-01T06:57:38.515Z,652.00
2022-10-01T06:58:38.546Z,728.00
2022-10-01T06:59:38.565Z,820.00
2022-10-01T07:00:38.683Z,860.00
2022-10-01T07:01:39.168Z,788.00
2022-10-01T07:02:38.751Z,816.00
2022-10-01T07:03:38.673Z,1004.00
2022-10-01T07:04:38.700Z,1092.00
2022-10-01T07:05:38.724Z,996.00
2022-10-01T07:06:38.752Z,1112.00
2022-10-01T07:07:38.777Z,1208.00
2022-10-01T07:08:38.806Z,1212.00
2022-10-01T07:09:38.829Z,1088.00
2022-10-01T07:10:38.859Z,972.00
2022-10-01T07:11:38.902Z,892.00
2022-10-01T07:12:38.910Z,800.00
2022-10-01T07:13:38.936Z,752.00
2022-10-01T07:14:38.963Z,784.00
2022-10-01T07:15:38.985Z,852.00
2022-10-01T07:16:39.127Z,896.00
2022-10-01T07:17:39.040Z,904.00
2022-10-01T07:18:39.068Z,868.00
2022-10-01T07:19:39.096Z,900.00
2022-10-01T07:20:39.120Z,1008.00
2022-10-01T07:21:39.146Z,1080.00
2022-10-01T07:22:39.175Z,1280.00
2022-10-01T07:23:39.199Z,1452.00
2022-10-01T07:24:39.224Z,1692.00
2022-10-01T07:25:39.250Z,1836.00
2022-10-01T07:26:39.279Z,1924.00
2022-10-01T07:27:39.321Z,2100.00
2022-10-01T07:28:39.333Z,2452.00
2022-10-01T07:29:39.356Z,2468.00
2022-10-01T07:30:39.384Z,2508.00
2022-10-01T07:31:39.586Z,2236.00
2022-10-01T07:32:39.436Z,2020.00
2022-10-01T07:33:39.463Z,2140.00
2022-10-01T07:34:39.490Z,2100.00
2022-10-01T07:35:39.517Z,1856.00
2022-10-01T07:36:39.544Z,1888.00
2022-10-01T07:37:39.568Z,2232.00
2022-10-01T07:38:39.603Z,2068.00
2022-10-01T07:39:39.621Z,1716.00
2022-10-01T07:40:39.649Z,1692.00
2022-10-01T07:41:39.675Z,1848.00
2022-10-01T07:42:39.704Z,1620.00
2022-10-01T07:43:39.745Z,1524.00
2022-10-01T07:44:39.755Z,1600.00
2022-10-01T07:45:39.795Z,1948.00
2022-10-01T07:46:39.810Z,2264.00
2022-10-01T07:47:39.834Z,2424.00
2022-10-01T07:48:39.863Z,2280.00
2022-10-01T07:49:39.888Z,2228.00
2022-10-01T07:50:39.917Z,2324.00
2022-10-01T07:51:39.944Z,1992.00
2022-10-01T07:52:39.970Z,1768.00
2022-10-01T07:53:39.995Z,1596.00
2022-10-01T07:54:40.024Z,1940.00
2022-10-01T07:55:40.048Z,2260.00
2022-10-01T07:56:40.077Z,2400.00
2022-10-01T07:57:40.102Z,2252.00
2022-10-01T07:58:40.131Z,2176.00
2022-10-01T07:59:40.176Z,2436.00
2022-10-01T08:00:40.193Z,2988.00
2022-10-01T08:01:40.287Z,3392.00
2022-10-01T08:02:40.276Z,3816.00
2022-10-01T08:03:40.263Z,3832.00
2022-10-01T08:04:40.293Z,4020.00
2022-10-01T08:05:40.318Z,4468.00
2022-10-01T08:06:40.346Z,4304.00
2022-10-01T08:07:40.372Z,4280.00
2022-10-01T08:08:40.397Z,4332.00
2022-10-01T08:09:40.426Z,3992.00
2022-10-01T08:10:40.454Z,4660.00
2022-10-01T08:11:40.478Z,4960.00
2022-10-01T08:12:40.506Z,5704.00
2022-10-01T08:13:40.534Z,4844.00
2022-10-01T08:14:40.559Z,4784.00
2022-10-01T08:15:40.609Z,4804.00
2022-10-01T08:16:40.684Z,5248.00
2022-10-01T08:17:40.643Z,5820.00
2022-10-01T08:18:40.669Z,5196.00
2022-10-01T08:19:40.701Z,3984.00
2022-10-01T08:20:40.722Z,2580.00
2022-10-01T08:21:40.754Z,2092.00
2022-10-01T08:22:42.295Z,2208.00
2022-10-01T08:23:40.806Z,2196.00
2022-10-01T08:24:40.832Z,2368.00
2022-10-01T08:25:40.864Z,2136.00
2022-10-01T08:26:40.886Z,2148.00
2022-10-01T08:27:40.916Z,2452.00
2022-10-01T08:28:40.940Z,2672.00
2022-10-01T08:29:40.973Z,2652.00
2022-10-01T08:30:40.998Z,2328.00
2022-10-01T08:31:41.107Z,2404.00
2022-10-01T08:32:41.051Z,2988.00
2022-10-01T08:33:41.079Z,3732.00
2022-10-01T08:34:41.104Z,4352.00
2022-10-01T08:35:41.238Z,4100.00
2022-10-01T08:36:41.159Z,3708.00
2022-10-01T08:37:41.189Z,2928.00
2022-10-01T08:38:41.214Z,2388.00
2022-10-01T08:39:41.243Z,1792.00
2022-10-01T08:40:41.268Z,1576.00
2022-10-01T08:41:41.297Z,1692.00
2022-10-01T08:42:41.324Z,1880.00
2022-10-01T08:43:41.352Z,2068.00
2022-10-01T08:44:41.379Z,2008.00
2022-10-01T08:45:41.477Z,2040.00
2022-10-01T08:46:41.434Z,1988.00
2022-10-01T08:47:41.482Z,2220.00
2022-10-01T08:48:41.488Z,2200.00
2022-10-01T08:49:41.517Z,2188.00
2022-10-01T08:50:41.547Z,2892.00
2022-10-01T08:51:41.572Z,3048.00
2022-10-01T08:52:41.598Z,2772.00
2022-10-01T08:53:41.628Z,3268.00
2022-10-01T08:54:41.654Z,3564.00
2022-10-01T08:55:41.682Z,5092.00
2022-10-01T08:56:41.710Z,4524.00
2022-10-01T08:57:41.737Z,5216.00
2022-10-01T08:58:41.764Z,5804.00
2022-10-01T08:59:41.796Z,4544.00
2022-10-01T09:00:41.819Z,2604.00
2022-10-01T09:01:41.890Z,2644.00
2022-10-01T09:02:41.876Z,2768.00
2022-10-01T09:03:41.927Z,3100.00
2022-10-01T09:04:42.055Z,3188.00
2022-10-01T09:05:41.958Z,3172.00
2022-10-01T09:06:41.985Z,2740.00
2022-10-01T09:07:42.015Z,2788.00
2022-10-01T09:08:42.040Z,2604.00
2022-10-01T09:09:42.070Z,2200.00
2022-10-01T09:10:42.093Z,2096.00
2022-10-01T09:11:42.128Z,2464.00
2022-10-01T09:12:42.149Z,2500.00
2022-10-01T09:13:43.327Z,2192.00
2022-10-01T09:14:42.205Z,2272.00
2022-10-01T09:15:42.235Z,2340.00
2022-10-01T09:16:42.365Z,2088.00
2022-10-01T09:17:42.291Z,2052.00
2022-10-01T09:18:42.317Z,2300.00
2022-10-01T09:19:46.067Z,2476.00
2022-10-01T09:20:42.373Z,2356.00
2022-10-01T09:21:42.403Z,2476.00
2022-10-01T09:22:42.428Z,2732.00
2022-10-01T09:23:42.457Z,2644.00
2022-10-01T09:24:42.483Z,2940.00
2022-10-01T09:25:42.513Z,3128.00
2022-10-01T09:26:42.539Z,2668.00
2022-10-01T09:27:42.569Z,2536.00
2022-10-01T09:28:42.594Z,2824.00
2022-10-01T09:29:42.625Z,2896.00
2022-10-01T09:30:42.651Z,2912.00
2022-10-01T09:31:42.741Z,3500.00
2022-10-01T09:32:42.706Z,3452.00
2022-10-01T09:34:25.284Z,3408.00
2022-10-01T09:36:07.880Z,4212.00
2022-10-01T09:37:07.893Z,6172.00
2022-10-01T09:38:07.917Z,7316.00
2022-10-01T09:39:07.944Z,5876.00
2022-10-01T09:40:07.971Z,5032.00
2022-10-01T09:41:08.001Z,4552.00
2022-10-01T09:42:08.027Z,4052.00
2022-10-01T09:43:08.055Z,3836.00
2022-10-01T09:44:08.085Z,4772.00
2022-10-01T09:45:08.112Z,6056.00
2022-10-01T09:46:08.192Z,9504.00
2022-10-01T09:47:08.170Z,12216.00
2022-10-01T09:49:08.222Z,11776.00
2022-10-01T09:50:08.252Z,12236.00
2022-10-01T09:52:08.526Z,13160.00
2022-10-01T09:53:08.940Z,12968.00
2022-10-01T09:54:08.569Z,9244.00
2022-10-01T09:57:08.447Z,10776.00
2022-10-01T09:58:08.476Z,12132.00
2022-10-01T09:59:08.503Z,12612.00
2022-10-01T10:00:08.532Z,13196.00
2022-10-01T10:03:54.493Z,11156.00
2022-10-01T10:04:54.517Z,11796.00
2022-10-01T10:05:54.546Z,12924.00
2022-10-01T10:06:54.575Z,13192.00
2022-10-01T10:07:54.637Z,14004.00
2022-10-01T10:08:54.634Z,14724.00
2022-10-01T10:09:54.660Z,11864.00
2022-10-01T10:10:54.691Z,10520.00
2022-10-01T10:11:54.719Z,10956.00
2022-10-01T10:12:54.757Z,10692.00
2022-10-01T10:13:54.778Z,10316.00
2022-10-01T10:14:54.823Z,9488.00
2022-10-01T10:15:54.867Z,9480.00
2022-10-01T10:16:54.927Z,9548.00
2022-10-01T10:17:54.894Z,9648.00
2022-10-01T10:18:55.128Z,10252.00
2022-10-01T10:19:54.953Z,10632.00
2022-10-01T10:20:54.982Z,10656.00
2022-10-01T10:21:55.014Z,10612.00
2022-10-01T10:22:55.041Z,10972.00
2022-10-01T10:23:55.092Z,10860.00
2022-10-01T10:24:55.099Z,10144.00
2022-10-01T10:28:43.804Z,12176.00
2022-10-01T10:29:41.092Z,12508.00
2022-10-01T10:30:41.123Z,12240.00
2022-10-01T10:31:41.257Z,9180.00
2022-10-01T10:32:41.184Z,7004.00
2022-10-01T10:33:41.212Z,5608.00
2022-10-01T10:34:41.241Z,4868.00
2022-10-01T10:35:41.273Z,6828.00
2022-10-01T10:36:41.301Z,8244.00
2022-10-01T10:37:41.534Z,11072.00
2022-10-01T10:38:41.361Z,11652.00
2022-10-01T10:39:41.410Z,12404.00
2022-10-01T10:40:41.443Z,9928.00
2022-10-01T10:41:41.475Z,7140.00
2022-10-01T10:42:41.490Z,9444.00
2022-10-01T10:43:41.512Z,8772.00
2022-10-01T10:44:41.542Z,6336.00
2022-10-01T10:45:41.573Z,5380.00
2022-10-01T10:46:45.897Z,5736.00
2022-10-01T10:47:41.635Z,7152.00
2022-10-01T10:48:41.668Z,6984.00
2022-10-01T10:49:41.692Z,6704.00
2022-10-01T10:50:41.722Z,8392.00
2022-10-01T10:51:41.754Z,9648.00
2022-10-01T10:52:45.602Z,10920.00
2022-10-01T10:53:41.811Z,10468.00
2022-10-01T10:54:41.841Z,9292.00
2022-10-01T10:55:41.891Z,9536.00
2022-10-01T10:56:41.903Z,10164.00
2022-10-01T10:57:41.932Z,10640.00
2022-10-01T10:58:41.962Z,9384.00
2022-10-01T10:59:41.994Z,8500.00
2022-10-01T11:01:49.742Z,10240.00
2022-10-01T11:02:49.663Z,10380.00
2022-10-01T11:03:49.691Z,10680.00
2022-10-01T11:04:49.733Z,9992.00
2022-10-01T11:05:49.752Z,8380.00
2022-10-01T11:06:49.783Z,7420.00
2022-10-01T11:07:49.812Z,7192.00
2022-10-01T11:08:49.845Z,8392.00
2022-10-01T11:09:49.873Z,9180.00
2022-10-01T11:10:49.921Z,9260.00
2022-10-01T11:11:49.933Z,9752.00
2022-10-01T11:12:49.964Z,10196.00
2022-10-01T11:13:49.994Z,10484.00
2022-10-01T11:14:50.026Z,10740.00
2022-10-01T11:15:50.120Z,10560.00
2022-10-01T11:16:50.086Z,10784.00
2022-10-01T11:17:50.114Z,10872.00
2022-10-01T11:18:50.149Z,10384.00
2022-10-01T11:19:50.178Z,8372.00
2022-10-01T11:20:50.210Z,8984.00
2022-10-01T11:21:50.238Z,10252.00
2022-10-01T11:22:50.268Z,10460.00
2022-10-01T11:23:50.298Z,9840.00
2022-10-01T11:24:50.329Z,7952.00
2022-10-01T11:25:50.358Z,6224.00
2022-10-01T11:26:53.290Z,4732.00
2022-10-01T11:27:50.506Z,3856.00
2022-10-01T11:28:50.451Z,3964.00
2022-10-01T11:29:50.482Z,4104.00
2022-10-01T11:30:50.515Z,4484.00
2022-10-01T11:31:50.660Z,4728.00
2022-10-01T11:32:50.575Z,4888.00
2022-10-01T11:33:50.604Z,4872.00
2022-10-01T11:34:50.635Z,4716.00
2022-10-01T11:35:50.664Z,4784.00
2022-10-01T11:36:54.720Z,5224.00
2022-10-01T11:37:50.727Z,5732.00
2022-10-01T11:38:50.756Z,6256.00
2022-10-01T11:39:50.785Z,6544.00
2022-10-01T11:40:50.816Z,6288.00
2022-10-01T11:41:50.844Z,6428.00
2022-10-01T11:42:50.895Z,6448.00
2022-10-01T11:43:50.905Z,6056.00
2022-10-01T11:44:50.935Z,5380.00
2022-10-01T11:45:50.963Z,4812.00
2022-10-01T11:46:51.041Z,4172.00
2022-10-01T11:47:51.023Z,3884.00
2022-10-01T11:48:51.095Z,3516.00
2022-10-01T11:49:51.081Z,3148.00
2022-10-01T11:50:51.114Z,2956.00
2022-10-01T11:51:51.141Z,2800.00
2022-10-01T11:52:51.173Z,2664.00
2022-10-01T11:53:51.202Z,2564.00
2022-10-01T11:54:54.310Z,2500.00
2022-10-01T11:55:51.259Z,2332.00
2022-10-01T11:56:51.291Z,2136.00
2022-10-01T11:57:51.319Z,2032.00
2022-10-01T11:58:51.368Z,1836.00
2022-10-01T11:59:51.377Z,1808.00
2022-10-01T12:00:51.407Z,1856.00
2022-10-01T12:01:51.460Z,2100.00
2022-10-01T12:02:51.465Z,2464.00
2022-10-01T12:03:51.492Z,2896.00
2022-10-01T12:04:51.522Z,3352.00
2022-10-01T12:05:51.582Z,3692.00
2022-10-01T12:06:51.583Z,4692.00
2022-10-01T12:07:51.609Z,4264.00
2022-10-01T12:08:51.637Z,4464.00
2022-10-01T12:09:51.663Z,5100.00
2022-10-01T12:10:51.694Z,4328.00
2022-10-01T12:11:51.724Z,4224.00
2022-10-01T12:12:51.751Z,4116.00
2022-10-01T12:13:51.778Z,3928.00
2022-10-01T12:14:51.827Z,3664.00
2022-10-01T12:15:51.882Z,3404.00
2022-10-01T12:16:51.865Z,3192.00
2022-10-01T12:17:51.892Z,3072.00
2022-10-01T12:18:51.922Z,3056.00
2022-10-01T12:19:51.951Z,3040.00
2022-10-01T12:20:51.979Z,2928.00
2022-10-01T12:21:52.006Z,2624.00
2022-10-01T12:22:52.039Z,2292.00
2022-10-01T12:23:52.065Z,2040.00
2022-10-01T12:24:52.102Z,1884.00
2022-10-01T12:25:52.118Z,1716.00
2022-10-01T12:26:52.149Z,1644.00
2022-10-01T12:27:52.217Z,1760.00
2022-10-01T12:28:56.661Z,1912.00
2022-10-01T12:29:52.231Z,2020.00
2022-10-01T12:30:52.283Z,2064.00
2022-10-01T12:31:52.303Z,2156.00
2022-10-01T12:32:52.318Z,2212.00
2022-10-01T12:33:52.344Z,2176.00
2022-10-01T12:34:54.403Z,2012.00
2022-10-01T12:35:52.401Z,1792.00
2022-10-01T12:36:52.431Z,1600.00
2022-10-01T12:37:52.456Z,1480.00
2022-10-01T12:38:52.486Z,1428.00
2022-10-01T12:39:53.324Z,1468.00
2022-10-01T12:40:52.543Z,1648.00
2022-10-01T12:41:52.568Z,1940.00
2022-10-01T12:42:52.596Z,2184.00
2022-10-01T12:43:52.624Z,2300.00
2022-10-01T12:44:52.652Z,2440.00
2022-10-01T12:45:52.742Z,2544.00
2022-10-01T12:46:52.725Z,2584.00
2022-10-01T12:47:52.736Z,2628.00
2022-10-01T12:48:52.763Z,2592.00
2022-10-01T12:49:52.887Z,2524.00
2022-10-01T12:50:52.868Z,2612.00